createdAt,value
2019-02-20T00:00:44.454Z,7.28
2019-02-20T00:01:44.455Z,7.31
2019-02-20T00:02:44.395Z,7.40
2019-02-20T00:03:44.364Z,7.39
2019-02-20T00:04:44.336Z,7.39
2019-02-20T00:05:44.310Z,7.24
2019-02-20T00:06:44.280Z,7.25
2019-02-20T00:07:44.247Z,7.32
2019-02-20T00:08:44.217Z,7.28
2019-02-20T00:09:44.188Z,7.39
2019-02-20T00:10:44.159Z,7.39
2019-02-20T00:11:44.128Z,7.35
2019-02-20T00:12:44.099Z,7.42
2019-02-20T00:13:44.070Z,7.30
2019-02-20T00:14:44.039Z,7.34
2019-02-20T00:15:44.009Z,7.32
2019-02-20T00:16:43.979Z,7.39
2019-02-20T00:17:43.949Z,7.32
2019-02-20T00:18:43.920Z,7.32
2019-02-20T00:19:43.891Z,7.37
2019-02-20T00:20:43.859Z,7.31
2019-02-20T00:21:43.833Z,7.42
2019-02-20T00:22:43.803Z,7.42
2019-02-20T00:23:43.772Z,7.43
2019-02-20T00:24:43.743Z,7.34
2019-02-20T00:25:43.714Z,7.32
2019-02-20T00:26:43.683Z,7.37
2019-02-20T00:27:43.653Z,7.42
2019-02-20T00:28:43.624Z,7.35
2019-02-20T00:29:43.596Z,7.35
2019-02-20T00:30:43.564Z,7.35
2019-02-20T00:31:43.534Z,7.39
2019-02-20T00:32:43.505Z,7.48
2019-02-20T00:33:43.494Z,7.55
2019-02-20T00:34:43.445Z,7.53
2019-02-20T00:35:43.417Z,7.55
2019-02-20T00:36:43.429Z,7.50
2019-02-20T00:37:43.358Z,7.50
2019-02-20T00:38:43.326Z,7.50
2019-02-20T00:39:43.308Z,7.50
2019-02-20T00:40:43.269Z,7.45
2019-02-20T00:41:43.239Z,7.43
2019-02-20T00:42:43.212Z,7.46
2019-02-20T00:43:43.182Z,7.53
2019-02-20T00:44:43.149Z,7.57
2019-02-20T00:45:43.124Z,7.48
2019-02-20T00:46:43.089Z,7.45
2019-02-20T00:47:43.060Z,7.50
2019-02-20T00:48:43.031Z,7.46
2019-02-20T00:49:43.003Z,7.46
2019-02-20T00:50:42.971Z,7.46
2019-02-20T00:51:42.941Z,7.48
2019-02-20T00:52:49.576Z,7.55
2019-02-20T00:53:42.883Z,7.50
2019-02-20T00:54:42.853Z,7.46
2019-02-20T00:55:42.822Z,7.49
2019-02-20T00:56:42.795Z,7.50
2019-02-20T00:57:42.763Z,7.49
2019-02-20T00:58:42.735Z,7.53
2019-02-20T00:59:42.708Z,7.48
2019-02-20T01:00:42.675Z,7.50
2019-02-20T01:01:42.648Z,7.55
2019-02-20T01:02:42.615Z,7.53
2019-02-20T01:03:42.589Z,7.55
2019-02-20T01:04:42.556Z,7.55
2019-02-20T01:05:42.526Z,7.52
2019-02-20T01:06:45.205Z,7.48
2019-02-20T01:07:42.468Z,7.53
2019-02-20T01:08:42.441Z,7.58
2019-02-20T01:09:42.409Z,7.55
2019-02-20T01:10:42.382Z,7.48
2019-02-20T01:11:42.351Z,7.55
2019-02-20T01:12:42.323Z,7.50
2019-02-20T01:13:42.294Z,7.61
2019-02-20T01:14:42.262Z,7.52
2019-02-20T01:15:42.231Z,7.58
2019-02-20T01:16:42.203Z,7.50
2019-02-20T01:17:42.173Z,7.52
2019-02-20T01:18:42.144Z,7.57
2019-02-20T01:19:42.113Z,7.57
2019-02-20T01:20:42.083Z,7.49
2019-02-20T01:21:42.055Z,7.61
2019-02-20T01:22:42.022Z,7.64
2019-02-20T01:23:41.995Z,7.64
2019-02-20T01:24:41.965Z,7.57
2019-02-20T01:25:41.935Z,7.46
2019-02-20T01:26:41.906Z,7.49
2019-02-20T01:27:41.876Z,7.48
2019-02-20T01:28:41.850Z,7.49
2019-02-20T01:29:41.819Z,7.55
2019-02-20T01:30:41.789Z,7.57
2019-02-20T01:31:41.761Z,7.57
2019-02-20T01:32:41.791Z,7.53
2019-02-20T01:33:41.700Z,7.53
2019-02-20T01:34:41.669Z,7.53
2019-02-20T01:35:41.639Z,7.63
2019-02-20T01:36:41.610Z,7.61
2019-02-20T01:37:41.581Z,7.64
2019-02-20T01:38:41.553Z,7.52
2019-02-20T01:39:41.525Z,7.55
2019-02-20T01:40:41.491Z,7.50
2019-02-20T01:41:41.463Z,7.55
2019-02-20T01:42:41.432Z,7.52
2019-02-20T01:43:41.443Z,7.52
2019-02-20T01:44:41.377Z,7.57
2019-02-20T01:45:41.343Z,7.52
2019-02-20T01:46:41.315Z,7.55
2019-02-20T01:47:41.289Z,7.61
2019-02-20T01:48:41.319Z,7.52
2019-02-20T01:49:41.225Z,7.61
2019-02-20T01:50:41.196Z,7.57
2019-02-20T01:51:41.168Z,7.49
2019-02-20T01:52:41.135Z,7.52
2019-02-20T01:53:41.110Z,7.49
2019-02-20T01:54:41.079Z,7.46
2019-02-20T01:55:41.049Z,7.50
2019-02-20T01:56:41.018Z,7.55
2019-02-20T01:57:40.990Z,7.53
2019-02-20T01:58:40.960Z,7.50
2019-02-20T01:59:40.931Z,7.46
2019-02-20T02:00:40.902Z,7.49
2019-02-20T02:01:40.871Z,7.61
2019-02-20T02:02:40.841Z,7.60
2019-02-20T02:03:40.812Z,7.49
2019-02-20T02:04:40.787Z,7.60
2019-02-20T02:05:40.773Z,7.58
2019-02-20T02:06:40.723Z,7.53
2019-02-20T02:07:40.696Z,7.48
2019-02-20T02:08:40.664Z,7.46
2019-02-20T02:09:40.637Z,7.50
2019-02-20T02:10:40.605Z,7.58
2019-02-20T02:11:40.575Z,7.58
2019-02-20T02:12:40.547Z,7.53
2019-02-20T02:13:40.517Z,7.58
2019-02-20T02:14:40.486Z,7.58
2019-02-20T02:15:40.463Z,7.50
2019-02-20T02:16:40.428Z,7.52
2019-02-20T02:17:40.399Z,7.50
2019-02-20T02:18:40.368Z,7.42
2019-02-20T02:19:40.338Z,7.45
2019-02-20T02:20:40.313Z,7.46
2019-02-20T02:21:40.281Z,7.43
2019-02-20T02:22:40.252Z,7.46
2019-02-20T02:23:40.221Z,7.45
2019-02-20T02:24:40.193Z,7.40
2019-02-20T02:25:40.162Z,7.40
2019-02-20T02:26:40.132Z,7.50
2019-02-20T02:27:40.102Z,7.49
2019-02-20T02:28:40.077Z,7.46
2019-02-20T02:29:40.045Z,7.46
2019-02-20T02:30:40.022Z,7.34
2019-02-20T02:31:39.985Z,7.37
2019-02-20T02:32:39.955Z,7.34
2019-02-20T02:33:39.926Z,7.45
2019-02-20T02:34:39.897Z,7.43
2019-02-20T02:35:39.866Z,7.52
2019-02-20T02:36:39.838Z,7.49
2019-02-20T02:37:39.808Z,7.48
2019-02-20T02:38:39.778Z,7.42
2019-02-20T02:39:39.758Z,7.34
2019-02-20T02:40:39.717Z,7.48
2019-02-20T02:41:39.693Z,7.45
2019-02-20T02:42:39.659Z,7.35
2019-02-20T02:43:39.632Z,7.40
2019-02-20T02:44:39.600Z,7.35
2019-02-20T02:45:39.571Z,7.39
2019-02-20T02:46:39.545Z,7.32
2019-02-20T02:47:39.511Z,7.35
2019-02-20T02:48:39.484Z,7.35
2019-02-20T02:49:39.462Z,7.32
2019-02-20T02:50:39.427Z,7.30
2019-02-20T02:51:39.392Z,7.37
2019-02-20T02:52:39.368Z,7.35
2019-02-20T02:53:39.333Z,7.37
2019-02-20T02:54:39.303Z,7.31
2019-02-20T02:55:39.275Z,7.34
2019-02-20T02:56:39.245Z,7.35
2019-02-20T02:57:39.215Z,7.42
2019-02-20T02:58:39.185Z,7.39
2019-02-20T02:59:39.156Z,7.31
2019-02-20T03:00:39.131Z,7.30
2019-02-20T03:01:39.097Z,7.27
2019-02-20T03:02:39.083Z,7.32
2019-02-20T03:03:39.037Z,7.24
2019-02-20T03:04:39.007Z,7.20
2019-02-20T03:05:38.979Z,7.25
2019-02-20T03:06:38.952Z,7.24
2019-02-20T03:07:38.919Z,7.25
2019-02-20T03:08:38.891Z,7.24
2019-02-20T03:09:38.859Z,7.35
2019-02-20T03:10:38.832Z,7.32
2019-02-20T03:11:38.800Z,7.35
2019-02-20T03:12:38.772Z,7.27
2019-02-20T03:13:38.743Z,7.23
2019-02-20T03:14:38.712Z,7.25
2019-02-20T03:15:38.694Z,7.28
2019-02-20T03:16:38.653Z,7.25
2019-02-20T03:17:38.623Z,7.21
2019-02-20T03:18:38.633Z,7.21
2019-02-20T03:19:38.561Z,7.20
2019-02-20T03:20:38.536Z,7.25
2019-02-20T03:21:38.504Z,7.20
2019-02-20T03:22:38.473Z,7.27
2019-02-20T03:23:40.506Z,7.24
2019-02-20T03:24:38.423Z,7.28
2019-02-20T03:25:38.387Z,7.27
2019-02-20T03:26:38.365Z,7.30
2019-02-20T03:27:38.327Z,7.30
2019-02-20T03:28:40.171Z,7.31
2019-02-20T03:29:38.267Z,7.25
2019-02-20T03:30:38.238Z,7.25
2019-02-20T03:31:38.214Z,7.20
2019-02-20T03:32:38.186Z,7.23
2019-02-20T03:33:38.149Z,7.24
2019-02-20T03:34:38.126Z,7.27
2019-02-20T03:35:38.091Z,7.24
2019-02-20T03:36:38.059Z,7.24
2019-02-20T03:37:38.057Z,7.17
2019-02-20T03:38:38.000Z,7.20
2019-02-20T03:39:37.973Z,7.15
2019-02-20T03:40:37.942Z,7.23
2019-02-20T03:41:37.914Z,7.24
2019-02-20T03:42:37.883Z,7.20
2019-02-20T03:43:37.854Z,7.34
2019-02-20T03:44:37.824Z,7.28
2019-02-20T03:45:37.794Z,7.37
2019-02-20T03:46:37.764Z,7.37
2019-02-20T03:47:37.735Z,7.35
2019-02-20T03:48:37.708Z,7.30
2019-02-20T03:49:37.676Z,7.32
2019-02-20T03:50:37.650Z,7.30
2019-02-20T03:51:37.620Z,7.34
2019-02-20T03:52:37.588Z,7.37
2019-02-20T03:53:37.557Z,7.30
2019-02-20T03:54:37.529Z,7.39
2019-02-20T03:55:37.498Z,7.35
2019-02-20T03:56:37.482Z,7.31
2019-02-20T03:57:37.441Z,7.32
2019-02-20T03:58:37.410Z,7.39
2019-02-20T03:59:37.384Z,7.39
2019-02-20T04:00:37.359Z,7.35
2019-02-20T04:01:37.323Z,7.35
2019-02-20T04:02:37.294Z,7.30
2019-02-20T04:03:37.262Z,7.32
2019-02-20T04:04:37.233Z,7.30
2019-02-20T04:05:37.205Z,7.31
2019-02-20T04:06:37.173Z,7.27
2019-02-20T04:07:37.142Z,7.28
2019-02-20T04:08:37.117Z,7.24
2019-02-20T04:09:37.085Z,7.34
2019-02-20T04:10:37.055Z,7.24
2019-02-20T04:11:37.025Z,7.37
2019-02-20T04:12:36.996Z,7.30
2019-02-20T04:13:36.967Z,7.35
2019-02-20T04:14:36.936Z,7.28
2019-02-20T04:15:36.906Z,7.35
2019-02-20T04:16:36.879Z,7.30
2019-02-20T04:17:36.850Z,7.32
2019-02-20T04:18:36.825Z,7.31
2019-02-20T04:19:36.791Z,7.27
2019-02-20T04:20:36.761Z,7.24
2019-02-20T04:21:36.732Z,7.30
2019-02-20T04:22:36.702Z,7.23
2019-02-20T04:23:36.672Z,7.30
2019-02-20T04:24:36.644Z,7.24
2019-02-20T04:25:36.612Z,7.34
2019-02-20T04:26:36.586Z,7.39
2019-02-20T04:27:36.552Z,7.37
2019-02-20T04:28:36.529Z,7.37
2019-02-20T04:29:36.494Z,7.37
2019-02-20T04:30:36.467Z,7.34
2019-02-20T04:31:36.438Z,7.43
2019-02-20T04:32:36.406Z,7.39
2019-02-20T04:33:36.377Z,7.25
2019-02-20T04:34:36.346Z,7.24
2019-02-20T04:35:36.322Z,7.30
2019-02-20T04:36:36.290Z,7.28
2019-02-20T04:37:36.258Z,7.30
2019-02-20T04:38:36.229Z,7.37
2019-02-20T04:39:36.198Z,7.31
2019-02-20T04:40:36.171Z,7.32
2019-02-20T04:41:36.140Z,7.31
2019-02-20T04:42:36.110Z,7.25
2019-02-20T04:43:36.079Z,7.32
2019-02-20T04:44:36.054Z,7.39
2019-02-20T04:45:36.021Z,7.31
2019-02-20T04:46:35.993Z,7.37
2019-02-20T04:47:35.961Z,7.28
2019-02-20T04:48:35.952Z,7.21
2019-02-20T04:49:35.905Z,7.25
2019-02-20T04:50:35.874Z,7.13
2019-02-20T04:51:35.918Z,7.13
2019-02-20T04:52:35.817Z,7.20
2019-02-20T04:53:35.790Z,7.12
2019-02-20T04:54:35.753Z,7.21
2019-02-20T04:55:35.730Z,7.07
2019-02-20T04:56:35.696Z,7.07
2019-02-20T04:57:35.666Z,7.15
2019-02-20T04:58:35.639Z,7.09
2019-02-20T04:59:35.605Z,7.13
2019-02-20T05:00:35.583Z,7.16
2019-02-20T05:01:35.548Z,7.16
2019-02-20T05:02:35.518Z,7.05
2019-02-20T05:03:35.488Z,7.12
2019-02-20T05:04:35.458Z,6.98
2019-02-20T05:05:35.430Z,6.97
2019-02-20T05:06:35.397Z,6.98
2019-02-20T05:07:35.369Z,6.97
2019-02-20T05:08:35.338Z,7.06
2019-02-20T05:09:35.314Z,7.09
2019-02-20T05:10:35.279Z,6.94
2019-02-20T05:11:35.248Z,6.95
2019-02-20T05:12:35.218Z,7.03
2019-02-20T05:13:35.189Z,6.92
2019-02-20T05:14:35.160Z,6.92
2019-02-20T05:15:35.132Z,6.99
2019-02-20T05:16:35.104Z,6.94
2019-02-20T05:17:35.071Z,6.92
2019-02-20T05:18:35.038Z,6.89
2019-02-20T05:19:35.010Z,6.92
2019-02-20T05:20:34.979Z,6.89
2019-02-20T05:21:34.974Z,6.76
2019-02-20T05:22:34.918Z,6.81
2019-02-20T05:23:34.889Z,6.79
2019-02-20T05:24:34.863Z,6.77
2019-02-20T05:25:34.829Z,6.73
2019-02-20T05:26:34.798Z,6.67
2019-02-20T05:27:34.768Z,6.73
2019-02-20T05:28:34.747Z,6.87
2019-02-20T05:29:34.747Z,6.76
2019-02-20T05:30:34.678Z,6.67
2019-02-20T05:31:34.648Z,6.69
2019-02-20T05:32:34.619Z,6.76
2019-02-20T05:33:34.589Z,6.76
2019-02-20T05:34:34.558Z,6.80
2019-02-20T05:35:34.527Z,6.91
2019-02-20T05:36:34.499Z,6.89
2019-02-20T05:37:34.469Z,6.79
2019-02-20T05:38:34.436Z,6.84
2019-02-20T05:39:34.409Z,6.80
2019-02-20T05:40:34.376Z,6.81
2019-02-20T05:41:34.349Z,6.84
2019-02-20T05:42:34.315Z,6.74
2019-02-20T05:43:34.287Z,6.76
2019-02-20T05:44:34.258Z,6.81
2019-02-20T05:45:34.226Z,6.79
2019-02-20T05:46:34.198Z,6.88
2019-02-20T05:47:34.166Z,6.85
2019-02-20T05:48:34.137Z,6.85
2019-02-20T05:49:34.127Z,6.85
2019-02-20T05:50:34.077Z,6.89
2019-02-20T05:51:34.051Z,6.79
2019-02-20T05:52:34.017Z,6.88
2019-02-20T05:53:33.988Z,6.89
2019-02-20T05:54:35.130Z,6.85
2019-02-20T05:55:33.928Z,6.77
2019-02-20T05:56:33.899Z,6.71
2019-02-20T05:57:33.880Z,6.74
2019-02-20T05:58:33.840Z,6.87
2019-02-20T05:59:33.810Z,6.89
2019-02-20T06:00:33.779Z,6.89
2019-02-20T06:01:33.776Z,6.92
2019-02-20T06:02:33.717Z,6.81
2019-02-20T06:03:33.699Z,6.84
2019-02-20T06:04:33.658Z,6.81
2019-02-20T06:05:33.629Z,6.79
2019-02-20T06:06:33.599Z,6.89
2019-02-20T06:07:33.582Z,6.92
2019-02-20T06:08:33.538Z,6.88
2019-02-20T06:09:33.510Z,6.91
2019-02-20T06:10:33.481Z,6.88
2019-02-20T06:11:33.454Z,6.89
2019-02-20T06:12:33.420Z,6.92
2019-02-20T06:13:33.392Z,6.91
2019-02-20T06:14:33.361Z,6.87
2019-02-20T06:15:33.331Z,6.87
2019-02-20T06:16:33.302Z,6.89
2019-02-20T06:17:33.270Z,6.98
2019-02-20T06:18:33.240Z,6.91
2019-02-20T06:19:33.212Z,6.89
2019-02-20T06:20:33.181Z,6.89
2019-02-20T06:21:33.152Z,6.98
2019-02-20T06:22:33.122Z,6.89
2019-02-20T06:23:33.094Z,6.95
2019-02-20T06:24:33.062Z,6.89
2019-02-20T06:25:33.034Z,6.94
2019-02-20T06:26:33.006Z,6.95
2019-02-20T06:27:32.973Z,6.92
2019-02-20T06:28:32.961Z,6.95
2019-02-20T06:29:32.913Z,6.97
2019-02-20T06:30:32.883Z,6.95
2019-02-20T06:31:32.851Z,6.97
2019-02-20T06:32:32.829Z,6.95
2019-02-20T06:33:32.797Z,6.97
2019-02-20T06:34:32.763Z,6.98
2019-02-20T06:35:32.737Z,6.94
2019-02-20T06:36:32.705Z,6.95
2019-02-20T06:37:32.675Z,6.98
2019-02-20T06:38:32.644Z,6.97
2019-02-20T06:39:32.614Z,6.94
2019-02-20T06:40:32.585Z,6.91
2019-02-20T06:41:38.935Z,7.09
2019-02-20T06:42:32.526Z,6.97
2019-02-20T06:43:32.501Z,6.91
2019-02-20T06:44:32.465Z,6.97
2019-02-20T06:45:32.437Z,6.89
2019-02-20T06:46:32.405Z,6.94
2019-02-20T06:47:32.375Z,6.94
2019-02-20T06:48:32.345Z,6.95
2019-02-20T06:49:32.325Z,6.89
2019-02-20T06:50:32.290Z,6.95
2019-02-20T06:51:32.258Z,7.09
2019-02-20T06:52:32.231Z,7.07
2019-02-20T06:53:32.203Z,7.12
2019-02-20T06:54:32.167Z,7.17
2019-02-20T06:55:32.137Z,7.06
2019-02-20T06:56:32.109Z,7.10
2019-02-20T06:57:32.079Z,7.09
2019-02-20T06:58:32.048Z,7.12
2019-02-20T06:59:32.020Z,7.30
2019-02-20T07:00:31.989Z,7.20
2019-02-20T07:01:31.960Z,7.25
2019-02-20T07:02:31.930Z,7.25
2019-02-20T07:03:31.901Z,7.23
2019-02-20T07:04:31.871Z,7.21
2019-02-20T07:05:31.843Z,7.28
2019-02-20T07:06:31.813Z,7.34
2019-02-20T07:07:31.784Z,7.35
2019-02-20T07:08:31.758Z,7.30
2019-02-20T07:09:31.725Z,7.32
2019-02-20T07:10:31.695Z,7.35
2019-02-20T07:11:31.666Z,7.32
2019-02-20T07:12:31.638Z,7.32
2019-02-20T07:13:31.608Z,7.37
2019-02-20T07:14:31.577Z,7.35
2019-02-20T07:15:31.572Z,7.34
2019-02-20T07:16:31.518Z,7.35
2019-02-20T07:17:31.491Z,7.43
2019-02-20T07:18:31.460Z,7.45
2019-02-20T07:19:31.430Z,7.50
2019-02-20T07:20:31.402Z,7.45
2019-02-20T07:21:31.372Z,7.45
2019-02-20T07:22:31.348Z,7.48
2019-02-20T07:23:31.313Z,7.48
2019-02-20T07:24:31.284Z,7.49
2019-02-20T07:25:31.262Z,7.55
2019-02-20T07:26:31.225Z,7.53
2019-02-20T07:27:31.194Z,7.52
2019-02-20T07:28:31.171Z,7.58
2019-02-20T07:29:31.139Z,7.57
2019-02-20T07:30:31.109Z,7.58
2019-02-20T07:31:31.079Z,7.52
2019-02-20T07:32:31.051Z,7.48
2019-02-20T07:33:31.021Z,7.63
2019-02-20T07:34:30.991Z,7.58
2019-02-20T07:35:30.962Z,7.61
2019-02-20T07:36:30.933Z,7.63
2019-02-20T07:37:30.930Z,7.67
2019-02-20T07:38:30.875Z,7.67
2019-02-20T07:39:30.846Z,7.67
2019-02-20T07:40:30.817Z,7.63
2019-02-20T07:41:30.789Z,7.79
2019-02-20T07:42:30.762Z,7.77
2019-02-20T07:43:30.729Z,7.75
2019-02-20T07:44:30.701Z,7.75
2019-02-20T07:45:30.672Z,7.80
2019-02-20T07:46:30.642Z,7.77
2019-02-20T07:47:30.614Z,7.77
2019-02-20T07:48:30.585Z,7.72
2019-02-20T07:49:30.555Z,7.74
2019-02-20T07:50:30.525Z,7.80
2019-02-20T07:51:30.499Z,7.82
2019-02-20T07:52:30.468Z,7.85
2019-02-20T07:53:30.440Z,7.95
2019-02-20T07:54:30.410Z,7.95
2019-02-20T07:55:30.383Z,7.98
2019-02-20T07:56:30.357Z,8.01
2019-02-20T07:57:30.324Z,8.01
2019-02-20T07:58:30.310Z,8.04
2019-02-20T07:59:30.270Z,8.10
2019-02-20T08:00:30.239Z,8.02
2019-02-20T08:01:30.227Z,8.05
2019-02-20T08:02:30.180Z,8.11
2019-02-20T08:03:30.151Z,8.07
2019-02-20T08:04:30.123Z,8.23
2019-02-20T08:05:30.099Z,8.25
2019-02-20T08:06:30.077Z,8.40
2019-02-20T08:07:30.038Z,8.34
2019-02-20T08:08:30.014Z,8.44
2019-02-20T08:09:29.983Z,8.37
2019-02-20T08:10:29.955Z,8.37
2019-02-20T08:11:29.927Z,8.37
2019-02-20T08:12:29.899Z,8.44
2019-02-20T08:13:38.894Z,8.28
2019-02-20T08:14:29.838Z,8.41
2019-02-20T08:15:29.811Z,8.40
2019-02-20T08:16:29.782Z,8.45
2019-02-20T08:17:29.754Z,8.56
2019-02-20T08:18:29.725Z,8.79
2019-02-20T08:19:29.698Z,9.02
2019-02-20T08:20:29.669Z,9.10
2019-02-20T08:21:29.644Z,9.39
2019-02-20T08:22:29.612Z,9.33
2019-02-20T08:23:29.585Z,9.08
2019-02-20T08:24:29.557Z,8.95
2019-02-20T08:25:29.531Z,9.04
2019-02-20T08:26:29.501Z,9.23
2019-02-20T08:27:29.475Z,9.13
2019-02-20T08:28:29.450Z,8.95
2019-02-20T08:29:29.419Z,8.73
2019-02-20T08:30:29.392Z,8.61
2019-02-20T08:31:29.364Z,8.59
2019-02-20T08:32:29.337Z,8.58
2019-02-20T08:33:29.315Z,8.47
2019-02-20T08:34:29.282Z,8.41
2019-02-20T08:35:29.253Z,8.34
2019-02-20T08:36:29.229Z,8.34
2019-02-20T08:37:29.199Z,8.29
2019-02-20T08:38:29.169Z,8.36
2019-02-20T08:39:29.146Z,8.43
2019-02-20T08:40:29.118Z,8.53
2019-02-20T08:41:29.087Z,8.55
2019-02-20T08:42:29.059Z,8.55
2019-02-20T08:43:29.032Z,8.80
2019-02-20T08:44:29.006Z,8.80
2019-02-20T08:45:28.982Z,8.86
2019-02-20T08:46:28.949Z,8.91
2019-02-20T08:47:28.922Z,8.80
2019-02-20T08:48:28.896Z,8.87
2019-02-20T08:49:28.866Z,9.01
2019-02-20T08:50:28.839Z,8.95
2019-02-20T08:51:28.814Z,9.08
2019-02-20T08:52:28.784Z,9.02
2019-02-20T08:53:28.756Z,9.23
2019-02-20T08:54:28.730Z,9.35
2019-02-20T08:55:32.167Z,9.47
2019-02-20T08:56:28.679Z,9.32
2019-02-20T08:57:28.648Z,9.38
2019-02-20T08:58:28.623Z,9.38
2019-02-20T08:59:28.594Z,9.32
2019-02-20T09:00:28.571Z,9.18
2019-02-20T09:01:28.538Z,9.20
2019-02-20T09:02:28.512Z,9.28
2019-02-20T09:03:28.487Z,9.18
2019-02-20T09:04:28.459Z,9.35
2019-02-20T09:05:28.433Z,9.31
2019-02-20T09:06:28.404Z,9.31
2019-02-20T09:07:28.377Z,9.15
2019-02-20T09:08:28.352Z,8.94
2019-02-20T09:09:28.324Z,9.08
2019-02-20T09:10:28.297Z,9.17
2019-02-20T09:11:28.274Z,9.20
2019-02-20T09:12:28.244Z,9.47
2019-02-20T09:13:28.216Z,9.56
2019-02-20T09:14:28.192Z,9.58
2019-02-20T09:15:28.161Z,9.53
2019-02-20T09:16:28.135Z,9.32
2019-02-20T09:17:28.108Z,9.31
2019-02-20T09:18:28.083Z,9.51
2019-02-20T09:19:28.054Z,9.54
2019-02-20T09:20:28.027Z,9.57
2019-02-20T09:21:28.005Z,9.56
2019-02-20T09:22:27.973Z,9.78
2019-02-20T09:23:27.954Z,9.56
2019-02-20T09:24:27.922Z,9.74
2019-02-20T09:25:27.894Z,9.87
2019-02-20T09:26:27.867Z,10.05
2019-02-20T09:27:27.851Z,10.15
2019-02-20T09:28:27.820Z,9.91
2019-02-20T09:29:27.787Z,9.91
2019-02-20T09:30:28.928Z,10.04
2019-02-20T09:31:27.732Z,10.15
2019-02-20T09:32:27.707Z,10.20
2019-02-20T09:33:27.684Z,10.45
2019-02-20T09:34:27.654Z,10.64
2019-02-20T09:35:27.628Z,10.64
2019-02-20T09:36:27.601Z,10.63
2019-02-20T09:37:27.574Z,10.64
2019-02-20T09:38:27.567Z,10.71
2019-02-20T09:39:27.526Z,10.68
2019-02-20T09:40:27.498Z,10.52
2019-02-20T09:41:27.473Z,10.64
2019-02-20T09:42:27.445Z,10.74
2019-02-20T09:43:27.419Z,10.59
2019-02-20T09:44:27.394Z,10.74
2019-02-20T09:45:27.368Z,10.85
2019-02-20T09:46:27.342Z,11.03
2019-02-20T09:47:27.316Z,11.39
2019-02-20T09:48:27.293Z,11.36
2019-02-20T09:49:27.265Z,11.94
2019-02-20T09:50:27.239Z,11.91
2019-02-20T09:51:27.215Z,12.60
2019-02-20T09:52:27.191Z,12.78
2019-02-20T09:53:27.164Z,12.87
2019-02-20T09:54:27.138Z,13.00
2019-02-20T09:55:27.117Z,12.54
2019-02-20T09:56:27.092Z,12.05
2019-02-20T09:57:27.065Z,11.95
2019-02-20T09:58:27.041Z,12.04
2019-02-20T09:59:27.015Z,11.49
2019-02-20T10:00:26.997Z,11.33
2019-02-20T10:01:26.969Z,11.11
2019-02-20T10:02:26.942Z,11.09
2019-02-20T10:03:26.919Z,10.92
2019-02-20T10:04:26.895Z,10.96
2019-02-20T10:05:26.868Z,11.14
2019-02-20T10:06:26.843Z,10.85
2019-02-20T10:07:26.819Z,10.61
2019-02-20T10:08:26.792Z,10.78
2019-02-20T10:09:26.768Z,10.96
2019-02-20T10:10:26.742Z,10.81
2019-02-20T10:11:26.719Z,10.86
2019-02-20T10:12:26.695Z,10.88
2019-02-20T10:13:26.668Z,11.10
2019-02-20T10:14:26.644Z,11.15
2019-02-20T10:15:26.619Z,11.21
2019-02-20T10:16:26.594Z,11.07
2019-02-20T10:17:26.569Z,11.21
2019-02-20T10:18:26.543Z,11.25
2019-02-20T10:19:26.518Z,11.43
2019-02-20T10:20:26.493Z,11.57
2019-02-20T10:21:26.468Z,11.39
2019-02-20T10:22:26.443Z,11.18
2019-02-20T10:23:26.420Z,11.25
2019-02-20T10:24:26.392Z,11.37
2019-02-20T10:25:26.368Z,11.27
2019-02-20T10:26:26.342Z,11.40
2019-02-20T10:27:26.320Z,11.61
2019-02-20T10:28:26.293Z,11.36
2019-02-20T10:29:26.270Z,11.46
2019-02-20T10:30:26.249Z,11.21
2019-02-20T10:31:26.218Z,10.84
2019-02-20T10:32:26.192Z,10.68
2019-02-20T10:33:26.168Z,10.48
2019-02-20T10:34:26.143Z,10.63
2019-02-20T10:35:26.124Z,11.03
2019-02-20T10:36:26.092Z,11.04
2019-02-20T10:37:26.067Z,11.40
2019-02-20T10:38:26.042Z,11.58
2019-02-20T10:39:26.017Z,12.17
2019-02-20T10:40:25.993Z,12.52
2019-02-20T10:41:25.967Z,12.01
2019-02-20T10:42:25.941Z,12.35
2019-02-20T10:43:25.917Z,12.79
2019-02-20T10:44:25.895Z,12.68
2019-02-20T10:45:25.869Z,12.53
2019-02-20T10:46:25.840Z,12.59
2019-02-20T10:47:25.821Z,12.67
2019-02-20T10:48:25.808Z,12.23
2019-02-20T10:49:25.767Z,12.34
2019-02-20T10:50:25.743Z,12.53
2019-02-20T10:51:25.718Z,12.38
2019-02-20T10:52:25.694Z,12.47
2019-02-20T10:53:25.670Z,12.41
2019-02-20T10:54:25.644Z,12.01
2019-02-20T10:55:25.619Z,11.83
2019-02-20T10:56:25.596Z,11.69
2019-02-20T10:57:25.572Z,11.29
2019-02-20T10:58:25.547Z,11.18
2019-02-20T10:59:25.523Z,11.09
2019-02-20T11:00:25.498Z,10.97
2019-02-20T11:01:25.474Z,11.04
2019-02-20T11:02:25.449Z,11.07
2019-02-20T11:03:25.427Z,10.97
2019-02-20T11:04:25.399Z,10.91
2019-02-20T11:05:25.374Z,11.00
2019-02-20T11:06:25.349Z,11.06
2019-02-20T11:07:25.323Z,11.11
2019-02-20T11:08:25.299Z,11.40
2019-02-20T11:09:25.278Z,11.51
2019-02-20T11:10:25.251Z,12.01
2019-02-20T11:11:25.223Z,12.50
2019-02-20T11:12:25.201Z,12.16
2019-02-20T11:13:25.174Z,11.88
2019-02-20T11:14:25.159Z,11.69
2019-02-20T11:15:25.125Z,11.55
2019-02-20T11:16:25.099Z,11.69
2019-02-20T11:17:25.073Z,11.67
2019-02-20T11:18:25.051Z,11.60
2019-02-20T11:19:25.025Z,11.47
2019-02-20T11:20:24.999Z,11.51
2019-02-20T11:21:24.974Z,11.18
2019-02-20T11:22:24.950Z,11.25
2019-02-20T11:23:24.925Z,11.62
2019-02-20T11:24:24.900Z,11.36
2019-02-20T11:25:24.877Z,11.25
2019-02-20T11:26:24.851Z,11.06
2019-02-20T11:27:24.826Z,10.92
2019-02-20T11:28:27.025Z,11.11
2019-02-20T11:29:24.776Z,11.14
2019-02-20T11:30:24.750Z,11.28
2019-02-20T11:31:24.726Z,11.42
2019-02-20T11:32:24.701Z,11.70
2019-02-20T11:33:24.676Z,11.82
2019-02-20T11:34:24.653Z,11.76
2019-02-20T11:35:24.626Z,11.85
2019-02-20T11:36:24.601Z,11.79
2019-02-20T11:37:24.578Z,11.57
2019-02-20T11:38:24.551Z,11.55
2019-02-20T11:39:24.528Z,11.52
2019-02-20T11:40:24.501Z,11.57
2019-02-20T11:41:24.478Z,11.80
2019-02-20T11:42:24.453Z,11.69
2019-02-20T11:43:24.429Z,11.57
2019-02-20T11:44:24.404Z,11.58
2019-02-20T11:45:24.380Z,11.62
2019-02-20T11:46:24.354Z,11.60
2019-02-20T11:47:24.330Z,11.39
2019-02-20T11:48:24.306Z,11.51
2019-02-20T11:49:24.282Z,11.44
2019-02-20T11:50:24.256Z,11.75
2019-02-20T11:51:24.231Z,11.99
2019-02-20T11:52:24.208Z,12.05
2019-02-20T11:53:24.182Z,12.31
2019-02-20T11:54:24.157Z,12.90
2019-02-20T11:55:24.134Z,13.54
2019-02-20T11:56:26.677Z,13.99
2019-02-20T11:57:24.085Z,14.17
2019-02-20T11:58:24.060Z,14.10
2019-02-20T11:59:24.036Z,13.70
2019-02-20T12:00:24.014Z,13.71
2019-02-20T12:01:23.988Z,13.67
2019-02-20T12:02:25.386Z,13.91
2019-02-20T12:03:23.942Z,13.96
2019-02-20T12:04:23.916Z,13.49
2019-02-20T12:05:23.892Z,13.26
2019-02-20T12:06:23.870Z,13.25
2019-02-20T12:07:23.842Z,13.57
2019-02-20T12:08:23.819Z,13.54
2019-02-20T12:11:11.140Z,13.45
2019-02-20T12:12:11.115Z,13.66
2019-02-20T12:13:11.092Z,13.78
2019-02-20T12:14:11.066Z,13.54
2019-02-20T12:15:11.043Z,13.36
2019-02-20T12:16:11.018Z,13.62
2019-02-20T12:17:10.994Z,13.57
2019-02-20T12:18:17.145Z,13.32
2019-02-20T12:19:10.947Z,13.70
2019-02-20T12:20:10.924Z,13.44
2019-02-20T12:21:10.899Z,13.84
2019-02-20T12:22:10.874Z,13.51
2019-02-20T12:23:10.849Z,13.91
2019-02-20T12:24:11.904Z,13.73
2019-02-20T12:25:10.801Z,13.33
2019-02-20T12:26:10.776Z,13.62
2019-02-20T12:27:10.753Z,14.24
2019-02-20T12:28:10.731Z,14.84
2019-02-20T12:29:11.277Z,14.78
2019-02-20T12:30:10.680Z,15.09
2019-02-20T12:31:10.657Z,15.13
2019-02-20T12:32:10.632Z,15.14
2019-02-20T12:33:10.609Z,15.25
2019-02-20T12:34:10.584Z,14.86
2019-02-20T12:35:10.562Z,15.10
2019-02-20T12:36:10.550Z,15.06
2019-02-20T12:37:10.512Z,15.38
2019-02-20T12:38:10.489Z,15.76
2019-02-20T12:39:10.465Z,15.92
2019-02-20T12:40:10.447Z,15.46
2019-02-20T12:41:10.959Z,15.41
2019-02-20T12:42:10.394Z,15.62
2019-02-20T12:43:10.371Z,15.28
2019-02-20T12:44:10.346Z,15.13
2019-02-20T12:45:10.324Z,14.45
2019-02-20T12:46:10.298Z,13.92
2019-02-20T12:47:10.274Z,14.25
2019-02-20T12:48:10.251Z,14.70
2019-02-20T12:49:10.227Z,15.16
2019-02-20T12:50:10.206Z,15.49
2019-02-20T12:51:10.179Z,15.39
2019-02-20T12:52:10.155Z,15.80
2019-02-20T12:53:10.131Z,16.08
2019-02-20T12:54:10.108Z,16.39
2019-02-20T12:55:10.085Z,15.49
2019-02-20T12:56:10.384Z,15.82
2019-02-20T12:57:10.428Z,15.51
2019-02-20T12:58:10.016Z,15.84
2019-02-20T12:59:09.991Z,15.57
2019-02-20T13:00:09.966Z,15.38
2019-02-20T13:01:09.943Z,14.45
2019-02-20T13:02:09.923Z,14.06
2019-02-20T13:03:09.896Z,13.91
2019-02-20T13:04:09.873Z,13.59
2019-02-20T13:05:09.850Z,13.29
2019-02-20T13:06:09.826Z,13.57
2019-02-20T13:07:09.803Z,13.33
2019-02-20T13:08:09.778Z,13.22
2019-02-20T13:09:09.756Z,12.96
2019-02-20T13:10:09.733Z,13.14
2019-02-20T13:11:09.716Z,12.86
2019-02-20T13:12:09.684Z,13.00
2019-02-20T13:13:09.660Z,12.92